Salem Center, Indiana
Current Conditions -  °F | °C
As of 3:35 AM on Tuesday 21 Oct 2014 (Local Time) from KANQ Reporting Station
Overcast Overcast  
Wind Chill: 43°   Ceiling: 5000
Heat Index: 46°   Visibility: 10mi
Dew Point: 43°   Wind: 7mph
Humidity: 87%   Direction: 340°NNW
Pressure: 29.94"   Gusts: NA
Location:  41.5628°N, 85.1391°W
Report Text: KANQ 210735Z AUTO 34006KT 10SM SCT017 OVC050 08/06 A2994 RMK
Loading
Personal Weather Stations






























Interactive Weather Map
Tropical Storm Tracking
New forecast layout! Learn more

10-Day Weather Forecast

Advertisements
Track Severe Weather on mobile